• Join FlightAware (Why Join?)
  • Login
  • US Flag 
04:13AM EDT


 

Airport Tracker/Info


-or-


 

Live Flight TrackerFlight Track Log ✈ DAL2226 ✈ 21-Apr-2012 ✈ KATL - KFLL

Flight Track Log - Related Links

Times and Time Zones

All times are in EDT time to prevent confusion due to time zone crossing. See the DAL2226 flight status page for this flight to view local times or setup timezone preferences in your user account.

Time Position Orientation Groundspeed Altitude Reporting Facility
EDT Latitude Longitude Course Direction KTS MPH feet Rate Location/Type
07:44AM 33.6333 -84.3667 116° Southeast 203 234 3,100  Level Atlanta TRACON
07:45AM 33.6000 -84.2833 179° South 276 318 5,700 2,340 Climbing Atlanta TRACON
07:47AM 33.4119 -84.2803 171° South 290 334 11,200 1,920 Climbing Atlanta Center
07:48AM 33.3306 -84.2650 166° South 303 349 12,300 1,860 Climbing Atlanta Center
07:49AM 33.2264 -84.2350 168° South 360 414 15,000 2,700 Climbing Atlanta Center
07:50AM 33.1219 -84.2075 168° South 386 444 17,700 2,520 Climbing Atlanta Center
07:51AM 33.0136 -84.1800 163° South 395 455 20,100 2,160 Climbing Atlanta Center
07:52AM 32.9031 -84.1403 158° South 400 460 22,100 1,920 Climbing Atlanta Center
07:53AM 32.7944 -84.0883 161° South 417 480 24,000 1,740 Climbing Atlanta Center
07:55AM 32.5583 -83.9894 162° South 448 516 27,200 1,560 Climbing Jacksonville Center
07:56AM 32.4356 -83.9411 162° South 448 516 28,600 1,500 Climbing Jacksonville Center
07:57AM 32.3128 -83.8931 161° South 458 527 30,200 1,440 Climbing Jacksonville Center
07:58AM 32.1922 -83.8428 161° South 463 533 31,500 1,320 Climbing Jacksonville Center
07:59AM 32.0653 -83.7922 161° South 463 533 32,900 1,440 Climbing Jacksonville Center
08:00AM 31.9425 -83.7422 162° South 463 533 34,400 1,440 Climbing Jacksonville Center
08:01AM 31.8342 -83.7019 160° South 458 527 35,800 1,140 Climbing Jacksonville Center
08:02AM 31.7133 -83.6497 161° South 458 527 36,700 900 Climbing Jacksonville Center
08:03AM 31.5861 -83.5975 162° South 468 539 37,700 1,140 Climbing Jacksonville Center
08:04AM 31.4694 -83.5528 161° South 466 536 39,000 600 Climbing Jacksonville Center
08:05AM 31.3528 -83.5056 161° South 450 518 39,000  Level Jacksonville Center
08:06AM 31.2403 -83.4611 161° South 438 504 39,000  Level Jacksonville Center
08:07AM 31.1236 -83.4144 161° South 438 504 39,000  Level Jacksonville Center
08:08AM 31.0047 -83.3678 162° South 444 511 39,000  Level Jacksonville Center
08:09AM 30.8900 -83.3236 160° South 444 511 39,000  Level Jacksonville Center
08:10AM 30.7817 -83.2769 158° South 439 505 39,000  Level Jacksonville Center
08:11AM 30.6669 -83.2233 156° South 439 505 39,000  Level Jacksonville Center
08:12AM 30.5544 -83.1653 157° South 439 505 39,000  Level Jacksonville Center
08:13AM 30.4397 -83.1094 157° South 439 505 39,000  Level Jacksonville Center
08:14AM 30.3292 -83.0539 157° South 439 505 39,000  Level Jacksonville Center
08:15AM 30.2164 -82.9983 156° South 439 505 39,000  Level Jacksonville Center
08:16AM 30.1100 -82.9431 159° South 434 499 39,000  Level Jacksonville Center
08:17AM 29.9825 -82.8853 156° South 450 518 39,000  Level Jacksonville Center
08:18AM 29.8719 -82.8278 158° South 434 499 39,000  Level Jacksonville Center
08:19AM 29.7611 -82.7753 156° South 439 505 39,000  Level Jacksonville Center
08:20AM 29.6506 -82.7181 158° South 439 505 39,000  Level Jacksonville Center
08:21AM 29.5378 -82.6658 155° Southeast 439 505 39,000  Level Jacksonville Center
08:22AM 29.4311 -82.6089 157° South 433 498 39,000  Level Jacksonville Center
08:23AM 29.3203 -82.5544 158° South 433 498 39,000  Level Jacksonville Center
08:24AM 29.2094 -82.5025 159° South 433 498 39,000  Level Jacksonville Center
08:25AM 29.0967 -82.4531 179° South 433 498 39,000  Level Jacksonville Center
08:26AM 28.9839 -82.4511 183° South 418 481 39,000  Level Jacksonville Center
08:27AM 28.8672 -82.4586 184° South 413 475 39,000  Level Jacksonville Center
08:28AM 28.7564 -82.4664 183° South 408 470 39,000  Level Jacksonville Center
08:29AM 28.6417 -82.4739 182° South 408 470 39,000  Level Jacksonville Center
08:30AM 28.5250 -82.4792 183° South 413 475 39,000  Level Jacksonville Center
08:33AM 28.2608 -82.4964 182° South 424 488 39,000  Level Miami Center
08:34AM 28.1461 -82.5000 184° South 425 489 39,000  Level Miami Center
08:35AM 28.0289 -82.5083 176° South 425 489 39,000  Level Miami Center
08:36AM 27.9125 -82.5003 161° South 425 489 39,000  Level Miami Center
08:37AM 27.7972 -82.4547 162° South 423 487 39,000 -660 Level Miami Center
08:38AM 27.6944 -82.4167 162° South 436 502 37,700 -1,200 Descending Miami Center
08:39AM 27.5650 -82.3683 162° South 441 507 36,600 -900 Descending Miami Center
08:40AM 27.4497 -82.3253 163° South 441 507 35,900 -720 Descending Miami Center
08:41AM 27.3364 -82.2872 161° South 431 496 35,200 -780 Descending Miami Center
08:42AM 27.2375 -82.2500 161° South 423 487 34,400 -900 Descending Miami Center
08:43AM 27.1286 -82.2075 163° South 423 487 33,500 -1,140 Descending Miami Center
08:44AM 27.0028 -82.1644 162° South 418 481 32,200 -1,800 Descending Miami Center
08:45AM 26.8997 -82.1272 162° South 423 487 29,900 -2,700 Descending Miami Center
08:46AM 26.7844 -82.0847 133° Southeast 433 498 26,800 -2,700 Descending Miami Center
08:47AM 26.7003 -81.9833 125° Southeast 422 486 24,500 -2,340 Descending Miami Center
08:48AM 26.6311 -81.8736 124° Southeast 425 489 22,200 -2,280 Descending Miami Center
08:49AM 26.5619 -81.7592 124° Southeast 432 497 20,000 -2,100 Descending Miami Center
08:50AM 26.4986 -81.6544 124° Southeast 425 489 18,100 -2,460 Descending Miami Center
08:51AM 26.4353 -81.5500 126° Southeast 412 474 15,100 -2,520 Descending Miami Center
08:52AM 26.3697 -81.4475 125° Southeast 412 474 13,100 -1,680 Descending Miami Center
08:53AM 26.3081 -81.3481 119° Southeast 407 468 11,800 -1,200 Descending Miami Center
08:54AM 26.2569 -81.2442 122° Southeast 401 461 10,800 -900 Descending Miami Center
08:55AM 26.2033 -81.1494 120° Southeast 380 437 10,000 -960 Descending Miami Center
08:56AM 26.1597 -81.0647 126° Southeast 349 402 8,900 -1,200 Descending Miami Center
08:56AM 26.1178 -81.0008 103° East 307 353 8,000 -1,200 Descending Miami Center
08:57AM 26.1050 -80.9378 92° East 299 344 7,200 -1,140 Descending Miami Center
08:58AM 26.1039 -80.8961 93° East 297 342 6,600 -900 Descending Miami Center
08:59AM 26.1000 -80.8081 93° East 281 323 5,900 -360 Descending Miami Center
09:00AM 26.0961 -80.7225 100° East 275 316 5,900 60 Level Miami Center
09:00AM 26.0889 -80.6758 85° East 271 312 6,000 60 Climbing Miami Center
09:01AM 26.0919 -80.6392 98° East 275 316 6,000  Level Miami Center
09:02AM 26.0817 -80.5556 99° East 275 316 6,000 -120 Level Miami Center
09:02AM 26.0744 -80.5067 90° East 269 310 5,900 -1,140 Descending Miami Center
09:03AM 26.0747 -80.4164 90° East 264 304 4,200 -1,380 Descending Miami Center
09:04AM 26.0744 -80.3403 91° East 235 270 3,000 -1,140 Descending Miami Center
09:05AM 26.0736 -80.2822 89° East 202 232 2,000 -1,020 Descending Miami Center
09:06AM 26.0747 -80.2339 92° East 151 174 1,100 -780 Descending Miami Center
09:07AM 26.0736 -80.1967 92° East 129 148 500 -660 Descending Miami Center